sensor_id;sensor_type;location;lat;lon;timestamp;temperature;humidity
19781;DHT22;10050;55.492;13.506;2023-01-29T00:01:51;4.00;99.90
19781;DHT22;10050;55.492;13.506;2023-01-29T00:04:17;4.00;99.90
19781;DHT22;10050;55.492;13.506;2023-01-29T00:06:42;4.00;99.90
19781;DHT22;10050;55.492;13.506;2023-01-29T00:09:09;4.00;99.90
19781;DHT22;10050;55.492;13.506;2023-01-29T00:11:35;4.00;99.90
19781;DHT22;10050;55.492;13.506;2023-01-29T00:14:01;4.00;99.90
19781;DHT22;10050;55.492;13.506;2023-01-29T00:16:26;4.10;99.90
19781;DHT22;10050;55.492;13.506;2023-01-29T00:18:52;4.10;99.90
19781;DHT22;10050;55.492;13.506;2023-01-29T00:21:20;4.10;99.90
19781;DHT22;10050;55.492;13.506;2023-01-29T00:23:47;4.10;99.90
19781;DHT22;10050;55.492;13.506;2023-01-29T00:26:13;4.10;99.90
19781;DHT22;10050;55.492;13.506;2023-01-29T00:28:39;4.10;99.90
19781;DHT22;10050;55.492;13.506;2023-01-29T00:31:07;4.10;99.90
19781;DHT22;10050;55.492;13.506;2023-01-29T00:33:33;4.10;99.90
19781;DHT22;10050;55.492;13.506;2023-01-29T00:36:02;4.10;99.90
19781;DHT22;10050;55.492;13.506;2023-01-29T00:38:28;4.10;99.90
19781;DHT22;10050;55.492;13.506;2023-01-29T00:40:53;4.10;99.90
19781;DHT22;10050;55.492;13.506;2023-01-29T00:43:38;4.10;99.90
19781;DHT22;10050;55.492;13.506;2023-01-29T00:46:22;4.10;99.90
19781;DHT22;10050;55.492;13.506;2023-01-29T00:48:47;4.20;99.90
19781;DHT22;10050;55.492;13.506;2023-01-29T00:51:13;4.10;99.90
19781;DHT22;10050;55.492;13.506;2023-01-29T00:53:39;4.20;99.90
19781;DHT22;10050;55.492;13.506;2023-01-29T00:56:04;4.20;99.90
19781;DHT22;10050;55.492;13.506;2023-01-29T00:58:30;4.20;99.90
19781;DHT22;10050;55.492;13.506;2023-01-29T01:00:59;4.20;99.90
19781;DHT22;10050;55.492;13.506;2023-01-29T01:03:25;4.20;99.90
19781;DHT22;10050;55.492;13.506;2023-01-29T01:06:02;4.20;99.90
19781;DHT22;10050;55.492;13.506;2023-01-29T01:08:28;4.20;99.90
19781;DHT22;10050;55.492;13.506;2023-01-29T01:11:12;4.20;99.90
19781;DHT22;10050;55.492;13.506;2023-01-29T01:13:38;4.20;99.90
19781;DHT22;10050;55.492;13.506;2023-01-29T01:16:11;4.20;99.90
19781;DHT22;10050;55.492;13.506;2023-01-29T01:18:36;4.20;99.90
19781;DHT22;10050;55.492;13.506;2023-01-29T01:21:02;4.30;99.90
19781;DHT22;10050;55.492;13.506;2023-01-29T01:23:28;4.20;99.90
19781;DHT22;10050;55.492;13.506;2023-01-29T01:25:54;4.20;99.90
19781;DHT22;10050;55.492;13.506;2023-01-29T01:28:19;4.20;99.90
19781;DHT22;10050;55.492;13.506;2023-01-29T01:30:45;4.20;99.90
19781;DHT22;10050;55.492;13.506;2023-01-29T01:33:11;4.20;99.90
19781;DHT22;10050;55.492;13.506;2023-01-29T01:35:38;4.30;99.90
19781;DHT22;10050;55.492;13.506;2023-01-29T01:38:05;4.30;99.90
19781;DHT22;10050;55.492;13.506;2023-01-29T01:40:31;4.20;99.90
19781;DHT22;10050;55.492;13.506;2023-01-29T01:42:58;4.30;99.90
19781;DHT22;10050;55.492;13.506;2023-01-29T01:45:30;4.30;99.90
19781;DHT22;10050;55.492;13.506;2023-01-29T01:48:09;4.30;99.90
19781;DHT22;10050;55.492;13.506;2023-01-29T01:50:53;4.30;99.90
19781;DHT22;10050;55.492;13.506;2023-01-29T01:53:25;4.30;99.90
19781;DHT22;10050;55.492;13.506;2023-01-29T01:56:00;4.20;99.90
19781;DHT22;10050;55.492;13.506;2023-01-29T01:58:33;4.20;99.90
19781;DHT22;10050;55.492;13.506;2023-01-29T02:01:03;4.20;99.90
19781;DHT22;10050;55.492;13.506;2023-01-29T02:04:17;4.30;99.90
19781;DHT22;10050;55.492;13.506;2023-01-29T02:06:42;4.30;99.90
19781;DHT22;10050;55.492;13.506;2023-01-29T02:09:31;4.30;99.90
19781;DHT22;10050;55.492;13.506;2023-01-29T02:12:07;4.20;99.90
19781;DHT22;10050;55.492;13.506;2023-01-29T02:14:35;4.20;99.90
19781;DHT22;10050;55.492;13.506;2023-01-29T02:17:13;4.20;99.90
19781;DHT22;10050;55.492;13.506;2023-01-29T02:30:32;4.20;99.90
19781;DHT22;10050;55.492;13.506;2023-01-29T02:33:04;4.20;99.90
19781;DHT22;10050;55.492;13.506;2023-01-29T02:35:43;4.20;99.90
19781;DHT22;10050;55.492;13.506;2023-01-29T02:41:04;4.10;99.90
19781;DHT22;10050;55.492;13.506;2023-01-29T02:54:50;4.20;99.90
19781;DHT22;10050;55.492;13.506;2023-01-29T02:57:21;4.20;99.90
19781;DHT22;10050;55.492;13.506;2023-01-29T03:05:31;4.20;99.90
19781;DHT22;10050;55.492;13.506;2023-01-29T03:08:06;4.20;99.90
19781;DHT22;10050;55.492;13.506;2023-01-29T03:10:49;4.20;99.90
19781;DHT22;10050;55.492;13.506;2023-01-29T03:13:40;4.20;99.90
19781;DHT22;10050;55.492;13.506;2023-01-29T03:18:52;4.20;99.90
19781;DHT22;10050;55.492;13.506;2023-01-29T03:21:24;4.20;99.90
19781;DHT22;10050;55.492;13.506;2023-01-29T03:24:11;4.20;99.90
19781;DHT22;10050;55.492;13.506;2023-01-29T03:26:58;4.20;99.90
19781;DHT22;10050;55.492;13.506;2023-01-29T03:29:47;4.20;99.90
19781;DHT22;10050;55.492;13.506;2023-01-29T03:32:31;4.20;99.90
19781;DHT22;10050;55.492;13.506;2023-01-29T03:35:04;4.20;99.90
19781;DHT22;10050;55.492;13.506;2023-01-29T03:37:45;4.20;99.90
19781;DHT22;10050;55.492;13.506;2023-01-29T03:40:12;4.20;99.90
19781;DHT22;10050;55.492;13.506;2023-01-29T03:48:08;4.20;99.90
19781;DHT22;10050;55.492;13.506;2023-01-29T04:01:56;4.10;99.90
19781;DHT22;10050;55.492;13.506;2023-01-29T04:04:30;4.20;99.90
19781;DHT22;10050;55.492;13.506;2023-01-29T04:07:02;4.20;99.90
19781;DHT22;10050;55.492;13.506;2023-01-29T04:09:37;4.20;99.90
19781;DHT22;10050;55.492;13.506;2023-01-29T04:12:08;4.20;99.90
19781;DHT22;10050;55.492;13.506;2023-01-29T04:14:34;4.20;99.90
19781;DHT22;10050;55.492;13.506;2023-01-29T04:17:05;4.20;99.90
19781;DHT22;10050;55.492;13.506;2023-01-29T04:19:32;4.20;99.90
19781;DHT22;10050;55.492;13.506;2023-01-29T04:22:18;4.20;99.90
19781;DHT22;10050;55.492;13.506;2023-01-29T04:24:45;4.20;99.90
19781;DHT22;10050;55.492;13.506;2023-01-29T04:30:01;4.20;99.90
19781;DHT22;10050;55.492;13.506;2023-01-29T04:38:22;4.20;99.90
19781;DHT22;10050;55.492;13.506;2023-01-29T04:41:10;4.20;99.90
19781;DHT22;10050;55.492;13.506;2023-01-29T04:43:47;4.20;99.90
19781;DHT22;10050;55.492;13.506;2023-01-29T04:46:25;4.20;99.90
19781;DHT22;10050;55.492;13.506;2023-01-29T04:51:24;4.20;99.90
19781;DHT22;10050;55.492;13.506;2023-01-29T04:54:14;4.20;99.90
19781;DHT22;10050;55.492;13.506;2023-01-29T04:59:32;4.30;99.90
19781;DHT22;10050;55.492;13.506;2023-01-29T05:02:00;4.20;99.90
19781;DHT22;10050;55.492;13.506;2023-01-29T05:04:29;4.20;99.90
19781;DHT22;10050;55.492;13.506;2023-01-29T05:06:57;4.20;99.90
19781;DHT22;10050;55.492;13.506;2023-01-29T05:09:25;4.30;99.90
19781;DHT22;10050;55.492;13.506;2023-01-29T05:11:51;4.20;99.90
19781;DHT22;10050;55.492;13.506;2023-01-29T05:14:18;4.20;99.90
19781;DHT22;10050;55.492;13.506;2023-01-29T05:16:48;4.20;99.90
19781;DHT22;10050;55.492;13.506;2023-01-29T05:19:16;4.20;99.90
19781;DHT22;10050;55.492;13.506;2023-01-29T05:21:44;4.30;99.90
19781;DHT22;10050;55.492;13.506;2023-01-29T05:24:20;4.20;99.90
19781;DHT22;10050;55.492;13.506;2023-01-29T05:26:48;4.30;99.90
19781;DHT22;10050;55.492;13.506;2023-01-29T05:29:33;4.30;99.90
19781;DHT22;10050;55.492;13.506;2023-01-29T05:31:59;4.30;99.90
19781;DHT22;10050;55.492;13.506;2023-01-29T05:34:24;4.30;99.90
19781;DHT22;10050;55.492;13.506;2023-01-29T05:36:50;4.30;99.90
19781;DHT22;10050;55.492;13.506;2023-01-29T05:39:16;4.30;99.90
19781;DHT22;10050;55.492;13.506;2023-01-29T05:41:42;4.40;99.90
19781;DHT22;10050;55.492;13.506;2023-01-29T05:44:11;4.30;99.90
19781;DHT22;10050;55.492;13.506;2023-01-29T05:46:37;4.40;99.90
19781;DHT22;10050;55.492;13.506;2023-01-29T05:49:03;4.30;99.90
19781;DHT22;10050;55.492;13.506;2023-01-29T05:51:29;4.30;99.90
19781;DHT22;10050;55.492;13.506;2023-01-29T05:53:55;4.30;99.90
19781;DHT22;10050;55.492;13.506;2023-01-29T05:56:20;4.30;99.90
19781;DHT22;10050;55.492;13.506;2023-01-29T05:58:46;4.30;99.90
19781;DHT22;10050;55.492;13.506;2023-01-29T06:01:20;4.30;99.90
19781;DHT22;10050;55.492;13.506;2023-01-29T06:03:46;4.40;99.90
19781;DHT22;10050;55.492;13.506;2023-01-29T06:06:12;4.40;99.90
19781;DHT22;10050;55.492;13.506;2023-01-29T06:08:38;4.40;99.90
19781;DHT22;10050;55.492;13.506;2023-01-29T06:11:08;4.40;99.90
19781;DHT22;10050;55.492;13.506;2023-01-29T06:13:34;4.40;99.90
19781;DHT22;10050;55.492;13.506;2023-01-29T06:16:03;4.40;99.90
19781;DHT22;10050;55.492;13.506;2023-01-29T06:18:28;4.40;99.90
19781;DHT22;10050;55.492;13.506;2023-01-29T06:20:54;4.40;99.90
19781;DHT22;10050;55.492;13.506;2023-01-29T06:23:19;4.40;99.90
19781;DHT22;10050;55.492;13.506;2023-01-29T06:25:45;4.40;99.90
19781;DHT22;10050;55.492;13.506;2023-01-29T06:28:11;4.40;99.90
19781;DHT22;10050;55.492;13.506;2023-01-29T06:30:36;4.40;99.90
19781;DHT22;10050;55.492;13.506;2023-01-29T06:33:03;4.40;99.90
19781;DHT22;10050;55.492;13.506;2023-01-29T06:35:29;4.40;99.90
19781;DHT22;10050;55.492;13.506;2023-01-29T06:37:55;4.40;99.90
19781;DHT22;10050;55.492;13.506;2023-01-29T06:40:21;4.40;99.90
19781;DHT22;10050;55.492;13.506;2023-01-29T06:42:46;4.40;99.90
19781;DHT22;10050;55.492;13.506;2023-01-29T06:45:12;4.40;99.90
19781;DHT22;10050;55.492;13.506;2023-01-29T06:47:38;4.40;99.90
19781;DHT22;10050;55.492;13.506;2023-01-29T06:50:04;4.40;99.90
19781;DHT22;10050;55.492;13.506;2023-01-29T06:52:29;4.40;99.90
19781;DHT22;10050;55.492;13.506;2023-01-29T06:54:55;4.40;99.90
19781;DHT22;10050;55.492;13.506;2023-01-29T06:57:21;4.40;99.90
19781;DHT22;10050;55.492;13.506;2023-01-29T06:59:47;4.40;99.90
19781;DHT22;10050;55.492;13.506;2023-01-29T07:02:13;4.50;99.90
19781;DHT22;10050;55.492;13.506;2023-01-29T07:04:38;4.40;99.90
19781;DHT22;10050;55.492;13.506;2023-01-29T07:07:06;4.40;99.90
19781;DHT22;10050;55.492;13.506;2023-01-29T07:09:41;4.40;99.90
19781;DHT22;10050;55.492;13.506;2023-01-29T07:12:10;4.50;99.90
19781;DHT22;10050;55.492;13.506;2023-01-29T07:14:36;4.40;99.90
19781;DHT22;10050;55.492;13.506;2023-01-29T07:17:01;4.40;99.90
19781;DHT22;10050;55.492;13.506;2023-01-29T07:19:27;4.50;99.90
19781;DHT22;10050;55.492;13.506;2023-01-29T07:21:53;4.40;99.90
19781;DHT22;10050;55.492;13.506;2023-01-29T07:24:18;4.40;99.90
19781;DHT22;10050;55.492;13.506;2023-01-29T07:26:44;4.40;99.90
19781;DHT22;10050;55.492;13.506;2023-01-29T07:29:10;4.50;99.90
19781;DHT22;10050;55.492;13.506;2023-01-29T07:31:36;4.40;99.90
19781;DHT22;10050;55.492;13.506;2023-01-29T07:34:02;4.40;99.90
19781;DHT22;10050;55.492;13.506;2023-01-29T07:36:27;4.50;99.90
19781;DHT22;10050;55.492;13.506;2023-01-29T07:38:54;4.50;99.90
19781;DHT22;10050;55.492;13.506;2023-01-29T07:41:20;4.50;99.90
19781;DHT22;10050;55.492;13.506;2023-01-29T07:43:46;4.40;99.90
19781;DHT22;10050;55.492;13.506;2023-01-29T07:46:11;4.40;99.90
19781;DHT22;10050;55.492;13.506;2023-01-29T07:48:37;4.40;99.90
19781;DHT22;10050;55.492;13.506;2023-01-29T07:51:03;4.40;99.90
19781;DHT22;10050;55.492;13.506;2023-01-29T07:53:28;4.40;99.90
19781;DHT22;10050;55.492;13.506;2023-01-29T07:55:55;4.50;99.90
19781;DHT22;10050;55.492;13.506;2023-01-29T07:58:21;4.40;99.90
19781;DHT22;10050;55.492;13.506;2023-01-29T08:00:46;4.40;99.90
19781;DHT22;10050;55.492;13.506;2023-01-29T08:03:15;4.40;99.90
19781;DHT22;10050;55.492;13.506;2023-01-29T08:05:44;4.40;99.90
19781;DHT22;10050;55.492;13.506;2023-01-29T08:08:11;4.50;99.90
19781;DHT22;10050;55.492;13.506;2023-01-29T08:10:37;4.50;99.90
19781;DHT22;10050;55.492;13.506;2023-01-29T08:13:05;4.50;99.90
19781;DHT22;10050;55.492;13.506;2023-01-29T08:15:31;4.50;99.90
19781;DHT22;10050;55.492;13.506;2023-01-29T08:17:57;4.60;99.90
19781;DHT22;10050;55.492;13.506;2023-01-29T08:20:23;4.60;99.90
19781;DHT22;10050;55.492;13.506;2023-01-29T08:22:48;4.60;99.90
19781;DHT22;10050;55.492;13.506;2023-01-29T08:25:14;4.60;99.90
19781;DHT22;10050;55.492;13.506;2023-01-29T08:27:41;4.60;99.90
19781;DHT22;10050;55.492;13.506;2023-01-29T08:30:09;4.60;99.90
19781;DHT22;10050;55.492;13.506;2023-01-29T08:32:35;4.60;99.90
19781;DHT22;10050;55.492;13.506;2023-01-29T08:35:01;4.60;99.90
19781;DHT22;10050;55.492;13.506;2023-01-29T08:37:26;4.70;99.90
19781;DHT22;10050;55.492;13.506;2023-01-29T08:39:52;4.70;99.90
19781;DHT22;10050;55.492;13.506;2023-01-29T08:42:18;4.70;99.90
19781;DHT22;10050;55.492;13.506;2023-01-29T08:44:43;4.70;99.90
19781;DHT22;10050;55.492;13.506;2023-01-29T08:47:09;4.70;99.90
19781;DHT22;10050;55.492;13.506;2023-01-29T08:49:34;4.70;99.90
19781;DHT22;10050;55.492;13.506;2023-01-29T08:52:00;4.70;99.90
19781;DHT22;10050;55.492;13.506;2023-01-29T08:54:26;4.80;99.90
19781;DHT22;10050;55.492;13.506;2023-01-29T08:56:51;4.80;99.90
19781;DHT22;10050;55.492;13.506;2023-01-29T08:59:17;4.90;99.90
19781;DHT22;10050;55.492;13.506;2023-01-29T09:01:43;4.90;99.90
19781;DHT22;10050;55.492;13.506;2023-01-29T09:04:09;4.90;99.90
19781;DHT22;10050;55.492;13.506;2023-01-29T09:06:34;5.00;99.90
19781;DHT22;10050;55.492;13.506;2023-01-29T09:09:00;5.00;99.90
19781;DHT22;10050;55.492;13.506;2023-01-29T09:11:26;5.00;99.90
19781;DHT22;10050;55.492;13.506;2023-01-29T09:13:51;5.00;99.90
19781;DHT22;10050;55.492;13.506;2023-01-29T09:16:17;5.00;99.90
19781;DHT22;10050;55.492;13.506;2023-01-29T09:18:43;5.10;99.90
19781;DHT22;10050;55.492;13.506;2023-01-29T09:21:09;5.00;99.90
19781;DHT22;10050;55.492;13.506;2023-01-29T09:23:35;5.10;99.90
19781;DHT22;10050;55.492;13.506;2023-01-29T09:26:01;5.10;99.90
19781;DHT22;10050;55.492;13.506;2023-01-29T09:28:27;5.20;99.90
19781;DHT22;10050;55.492;13.506;2023-01-29T09:30:53;5.20;99.90
19781;DHT22;10050;55.492;13.506;2023-01-29T09:33:18;5.20;99.90
19781;DHT22;10050;55.492;13.506;2023-01-29T09:35:44;5.20;99.90
19781;DHT22;10050;55.492;13.506;2023-01-29T09:38:13;5.20;99.90
19781;DHT22;10050;55.492;13.506;2023-01-29T09:40:45;5.20;99.90
19781;DHT22;10050;55.492;13.506;2023-01-29T09:43:22;5.20;99.90
19781;DHT22;10050;55.492;13.506;2023-01-29T09:46:05;5.20;99.90
19781;DHT22;10050;55.492;13.506;2023-01-29T09:48:34;5.30;99.90
19781;DHT22;10050;55.492;13.506;2023-01-29T09:51:06;5.30;99.90
19781;DHT22;10050;55.492;13.506;2023-01-29T09:53:44;5.30;99.90
19781;DHT22;10050;55.492;13.506;2023-01-29T09:56:15;5.30;99.90
19781;DHT22;10050;55.492;13.506;2023-01-29T09:58:44;5.30;99.90
19781;DHT22;10050;55.492;13.506;2023-01-29T10:25:48;5.30;99.90
19781;DHT22;10050;55.492;13.506;2023-01-29T10:28:21;5.30;99.90
19781;DHT22;10050;55.492;13.506;2023-01-29T10:30:53;5.30;99.90
19781;DHT22;10050;55.492;13.506;2023-01-29T10:33:41;5.40;99.90
19781;DHT22;10050;55.492;13.506;2023-01-29T10:36:27;5.40;99.90
19781;DHT22;10050;55.492;13.506;2023-01-29T10:38:56;5.40;99.90
19781;DHT22;10050;55.492;13.506;2023-01-29T10:46:55;5.40;99.90
19781;DHT22;10050;55.492;13.506;2023-01-29T10:49:45;5.50;99.90
19781;DHT22;10050;55.492;13.506;2023-01-29T10:52:54;5.50;99.90
19781;DHT22;10050;55.492;13.506;2023-01-29T11:00:37;5.50;99.90
19781;DHT22;10050;55.492;13.506;2023-01-29T11:03:22;5.50;99.90
19781;DHT22;10050;55.492;13.506;2023-01-29T11:08:50;5.40;99.90
19781;DHT22;10050;55.492;13.506;2023-01-29T11:11:18;5.50;99.90
19781;DHT22;10050;55.492;13.506;2023-01-29T11:13:59;5.50;99.90
19781;DHT22;10050;55.492;13.506;2023-01-29T11:16:29;5.50;99.90
19781;DHT22;10050;55.492;13.506;2023-01-29T11:19:00;5.50;99.90
19781;DHT22;10050;55.492;13.506;2023-01-29T11:21:28;5.50;99.90
19781;DHT22;10050;55.492;13.506;2023-01-29T11:24:11;5.50;99.90
19781;DHT22;10050;55.492;13.506;2023-01-29T11:26:41;5.50;99.90
19781;DHT22;10050;55.492;13.506;2023-01-29T11:31:56;5.50;99.90
19781;DHT22;10050;55.492;13.506;2023-01-29T11:34:23;5.50;99.90
19781;DHT22;10050;55.492;13.506;2023-01-29T11:37:00;5.50;99.90
19781;DHT22;10050;55.492;13.506;2023-01-29T11:39:28;5.60;99.90
19781;DHT22;10050;55.492;13.506;2023-01-29T11:42:03;5.60;99.90
19781;DHT22;10050;55.492;13.506;2023-01-29T11:50:05;5.50;99.90
19781;DHT22;10050;55.492;13.506;2023-01-29T11:52:38;5.50;99.90
19781;DHT22;10050;55.492;13.506;2023-01-29T11:55:26;5.50;99.90
19781;DHT22;10050;55.492;13.506;2023-01-29T11:58:05;5.50;99.90
19781;DHT22;10050;55.492;13.506;2023-01-29T12:00:36;5.50;99.90
19781;DHT22;10050;55.492;13.506;2023-01-29T12:05:37;5.50;99.90
19781;DHT22;10050;55.492;13.506;2023-01-29T12:08:14;5.50;99.90
19781;DHT22;10050;55.492;13.506;2023-01-29T12:10:42;5.60;99.90
19781;DHT22;10050;55.492;13.506;2023-01-29T12:15:44;5.60;99.90
19781;DHT22;10050;55.492;13.506;2023-01-29T12:18:26;5.60;99.90
19781;DHT22;10050;55.492;13.506;2023-01-29T12:21:09;5.60;99.90
19781;DHT22;10050;55.492;13.506;2023-01-29T12:23:46;5.50;99.90
19781;DHT22;10050;55.492;13.506;2023-01-29T12:26:21;5.60;99.90
19781;DHT22;10050;55.492;13.506;2023-01-29T12:34:34;5.70;99.90
19781;DHT22;10050;55.492;13.506;2023-01-29T12:37:02;5.70;99.90
19781;DHT22;10050;55.492;13.506;2023-01-29T12:39:31;5.60;99.90
19781;DHT22;10050;55.492;13.506;2023-01-29T12:42:01;5.60;99.90
19781;DHT22;10050;55.492;13.506;2023-01-29T12:44:57;5.70;99.90
19781;DHT22;10050;55.492;13.506;2023-01-29T12:47:37;5.70;99.90
19781;DHT22;10050;55.492;13.506;2023-01-29T12:50:28;5.80;99.90
19781;DHT22;10050;55.492;13.506;2023-01-29T12:53:00;5.70;99.90
19781;DHT22;10050;55.492;13.506;2023-01-29T12:55:47;5.80;99.90
19781;DHT22;10050;55.492;13.506;2023-01-29T13:00:51;5.80;99.90
19781;DHT22;10050;55.492;13.506;2023-01-29T13:03:23;5.80;99.90
19781;DHT22;10050;55.492;13.506;2023-01-29T13:05:59;5.80;99.90
19781;DHT22;10050;55.492;13.506;2023-01-29T13:08:35;5.70;99.90
19781;DHT22;10050;55.492;13.506;2023-01-29T13:11:07;5.70;99.90
19781;DHT22;10050;55.492;13.506;2023-01-29T13:13:49;5.70;99.90
19781;DHT22;10050;55.492;13.506;2023-01-29T13:16:24;5.70;99.90
19781;DHT22;10050;55.492;13.506;2023-01-29T13:19:04;5.70;99.90
19781;DHT22;10050;55.492;13.506;2023-01-29T13:21:35;5.70;99.90
19781;DHT22;10050;55.492;13.506;2023-01-29T13:24:04;5.70;99.90
19781;DHT22;10050;55.492;13.506;2023-01-29T13:26:34;5.70;99.90
19781;DHT22;10050;55.492;13.506;2023-01-29T13:29:00;5.70;99.90
19781;DHT22;10050;55.492;13.506;2023-01-29T13:31:32;5.70;99.90
19781;DHT22;10050;55.492;13.506;2023-01-29T13:36:34;5.70;99.90
19781;DHT22;10050;55.492;13.506;2023-01-29T13:39:07;5.70;99.90
19781;DHT22;10050;55.492;13.506;2023-01-29T13:41:41;5.60;99.90
19781;DHT22;10050;55.492;13.506;2023-01-29T13:44:28;5.50;99.90
19781;DHT22;10050;55.492;13.506;2023-01-29T13:47:01;5.50;99.90
19781;DHT22;10050;55.492;13.506;2023-01-29T13:52:21;5.50;99.90
19781;DHT22;10050;55.492;13.506;2023-01-29T13:54:56;5.40;99.90
19781;DHT22;10050;55.492;13.506;2023-01-29T14:10:29;5.30;99.90
19781;DHT22;10050;55.492;13.506;2023-01-29T14:15:30;5.30;99.90
19781;DHT22;10050;55.492;13.506;2023-01-29T14:18:02;5.30;99.90
19781;DHT22;10050;55.492;13.506;2023-01-29T14:25:57;5.20;99.90
19781;DHT22;10050;55.492;13.506;2023-01-29T14:28:27;5.30;99.90
19781;DHT22;10050;55.492;13.506;2023-01-29T14:30:54;5.30;99.90
19781;DHT22;10050;55.492;13.506;2023-01-29T14:33:31;5.30;99.90
19781;DHT22;10050;55.492;13.506;2023-01-29T14:36:03;5.20;99.90
19781;DHT22;10050;55.492;13.506;2023-01-29T14:38:31;5.20;99.90
19781;DHT22;10050;55.492;13.506;2023-01-29T14:41:24;5.20;99.90
19781;DHT22;10050;55.492;13.506;2023-01-29T14:46:55;5.20;99.90
19781;DHT22;10050;55.492;13.506;2023-01-29T14:49:55;5.20;99.90
19781;DHT22;10050;55.492;13.506;2023-01-29T14:52:41;5.10;99.90
19781;DHT22;10050;55.492;13.506;2023-01-29T14:57:46;5.10;99.90
19781;DHT22;10050;55.492;13.506;2023-01-29T15:00:35;5.10;99.90
19781;DHT22;10050;55.492;13.506;2023-01-29T15:03:10;5.10;99.90
19781;DHT22;10050;55.492;13.506;2023-01-29T15:05:38;5.10;99.90
19781;DHT22;10050;55.492;13.506;2023-01-29T15:08:13;5.10;99.90
19781;DHT22;10050;55.492;13.506;2023-01-29T15:10:51;5.00;99.90
19781;DHT22;10050;55.492;13.506;2023-01-29T15:13:49;5.00;99.90
19781;DHT22;10050;55.492;13.506;2023-01-29T15:16:29;5.00;99.90
19781;DHT22;10050;55.492;13.506;2023-01-29T15:19:03;5.00;99.90
19781;DHT22;10050;55.492;13.506;2023-01-29T15:21:32;5.00;99.90
19781;DHT22;10050;55.492;13.506;2023-01-29T15:24:12;5.10;99.90
19781;DHT22;10050;55.492;13.506;2023-01-29T15:26:41;5.00;99.90
19781;DHT22;10050;55.492;13.506;2023-01-29T15:29:22;5.00;99.90
19781;DHT22;10050;55.492;13.506;2023-01-29T15:31:48;5.10;99.90
19781;DHT22;10050;55.492;13.506;2023-01-29T15:34:14;5.00;99.90
19781;DHT22;10050;55.492;13.506;2023-01-29T15:36:40;5.00;99.90
19781;DHT22;10050;55.492;13.506;2023-01-29T15:41:37;5.10;99.90
19781;DHT22;10050;55.492;13.506;2023-01-29T15:44:07;5.00;99.90
19781;DHT22;10050;55.492;13.506;2023-01-29T15:46:38;5.10;99.90
19781;DHT22;10050;55.492;13.506;2023-01-29T15:49:10;5.10;99.90
19781;DHT22;10050;55.492;13.506;2023-01-29T15:51:39;5.00;99.90
19781;DHT22;10050;55.492;13.506;2023-01-29T15:54:08;5.00;99.90
19781;DHT22;10050;55.492;13.506;2023-01-29T15:56:40;5.00;99.90
19781;DHT22;10050;55.492;13.506;2023-01-29T15:59:15;5.00;99.90
19781;DHT22;10050;55.492;13.506;2023-01-29T16:01:41;5.00;99.90
19781;DHT22;10050;55.492;13.506;2023-01-29T16:04:12;5.00;99.90
19781;DHT22;10050;55.492;13.506;2023-01-29T16:06:39;5.00;99.90
19781;DHT22;10050;55.492;13.506;2023-01-29T16:09:07;5.00;99.90
19781;DHT22;10050;55.492;13.506;2023-01-29T16:11:34;5.00;99.90
19781;DHT22;10050;55.492;13.506;2023-01-29T16:14:00;5.00;99.90
19781;DHT22;10050;55.492;13.506;2023-01-29T16:16:26;5.00;99.90
19781;DHT22;10050;55.492;13.506;2023-01-29T16:18:53;4.90;99.90
19781;DHT22;10050;55.492;13.506;2023-01-29T16:21:36;5.00;99.90
19781;DHT22;10050;55.492;13.506;2023-01-29T16:24:07;5.00;99.90
19781;DHT22;10050;55.492;13.506;2023-01-29T16:26:38;4.90;99.90
19781;DHT22;10050;55.492;13.506;2023-01-29T16:29:09;4.90;99.90
19781;DHT22;10050;55.492;13.506;2023-01-29T16:31:37;4.90;99.90
19781;DHT22;10050;55.492;13.506;2023-01-29T16:34:30;4.90;99.90
19781;DHT22;10050;55.492;13.506;2023-01-29T16:36:58;4.90;99.90
19781;DHT22;10050;55.492;13.506;2023-01-29T16:39:28;4.90;99.90
19781;DHT22;10050;55.492;13.506;2023-01-29T16:44:44;4.90;99.90
19781;DHT22;10050;55.492;13.506;2023-01-29T16:47:12;4.80;99.90
19781;DHT22;10050;55.492;13.506;2023-01-29T16:54:47;4.90;99.90
19781;DHT22;10050;55.492;13.506;2023-01-29T16:57:17;4.90;99.90
19781;DHT22;10050;55.492;13.506;2023-01-29T16:59:44;4.90;99.90
19781;DHT22;10050;55.492;13.506;2023-01-29T17:02:26;4.80;99.90
19781;DHT22;10050;55.492;13.506;2023-01-29T17:04:56;4.90;99.90
19781;DHT22;10050;55.492;13.506;2023-01-29T17:07:23;4.90;99.90
19781;DHT22;10050;55.492;13.506;2023-01-29T17:09:53;4.80;99.90
19781;DHT22;10050;55.492;13.506;2023-01-29T17:12:23;4.80;99.90
19781;DHT22;10050;55.492;13.506;2023-01-29T17:15:00;4.80;99.90
19781;DHT22;10050;55.492;13.506;2023-01-29T17:17:31;4.80;99.90
19781;DHT22;10050;55.492;13.506;2023-01-29T17:20:08;4.80;99.90
19781;DHT22;10050;55.492;13.506;2023-01-29T17:22:35;4.80;99.90
19781;DHT22;10050;55.492;13.506;2023-01-29T17:25:01;4.70;99.90
19781;DHT22;10050;55.492;13.506;2023-01-29T17:27:27;4.80;99.90
19781;DHT22;10050;55.492;13.506;2023-01-29T17:29:53;4.80;99.90
19781;DHT22;10050;55.492;13.506;2023-01-29T17:32:19;4.80;99.90
19781;DHT22;10050;55.492;13.506;2023-01-29T17:34:45;4.80;99.90
19781;DHT22;10050;55.492;13.506;2023-01-29T17:37:14;4.80;99.90
19781;DHT22;10050;55.492;13.506;2023-01-29T17:39:41;4.80;99.90
19781;DHT22;10050;55.492;13.506;2023-01-29T17:42:16;4.80;99.90
19781;DHT22;10050;55.492;13.506;2023-01-29T17:44:42;4.70;99.90
19781;DHT22;10050;55.492;13.506;2023-01-29T17:47:16;4.70;99.90
19781;DHT22;10050;55.492;13.506;2023-01-29T17:49:42;4.80;99.90
19781;DHT22;10050;55.492;13.506;2023-01-29T17:52:08;4.70;99.90
19781;DHT22;10050;55.492;13.506;2023-01-29T17:54:34;4.80;99.90
19781;DHT22;10050;55.492;13.506;2023-01-29T17:57:00;4.80;99.90
19781;DHT22;10050;55.492;13.506;2023-01-29T17:59:30;4.80;99.90
19781;DHT22;10050;55.492;13.506;2023-01-29T18:01:56;4.80;99.90
19781;DHT22;10050;55.492;13.506;2023-01-29T18:04:22;4.80;99.90
19781;DHT22;10050;55.492;13.506;2023-01-29T18:06:49;4.80;99.90
19781;DHT22;10050;55.492;13.506;2023-01-29T18:09:18;4.80;99.90
19781;DHT22;10050;55.492;13.506;2023-01-29T18:11:45;4.80;99.90
19781;DHT22;10050;55.492;13.506;2023-01-29T18:14:12;4.80;99.90
19781;DHT22;10050;55.492;13.506;2023-01-29T18:16:39;4.80;99.90
19781;DHT22;10050;55.492;13.506;2023-01-29T18:19:17;4.80;99.90
19781;DHT22;10050;55.492;13.506;2023-01-29T18:21:43;4.80;99.90
19781;DHT22;10050;55.492;13.506;2023-01-29T18:24:09;4.80;99.90
19781;DHT22;10050;55.492;13.506;2023-01-29T18:26:35;4.80;99.90
19781;DHT22;10050;55.492;13.506;2023-01-29T18:29:01;4.80;99.90
19781;DHT22;10050;55.492;13.506;2023-01-29T18:31:26;4.80;99.90
19781;DHT22;10050;55.492;13.506;2023-01-29T18:33:52;4.90;99.90
19781;DHT22;10050;55.492;13.506;2023-01-29T18:36:17;4.90;99.90
19781;DHT22;10050;55.492;13.506;2023-01-29T18:38:43;4.90;99.90